createdAt,value
2018-03-19T00:01:31.323Z,97465.90
2018-03-19T00:03:59.576Z,97464.08
2018-03-19T00:06:27.838Z,97465.74
2018-03-19T00:08:56.862Z,97468.06
2018-03-19T00:11:25.137Z,97472.24
2018-03-19T00:13:53.391Z,97470.72
2018-03-19T00:16:21.663Z,97472.19
2018-03-19T00:18:50.679Z,97466.51
2018-03-19T00:21:18.944Z,97462.79
2018-03-19T00:23:47.196Z,97461.39
2018-03-19T00:26:16.223Z,97469.87
2018-03-19T00:28:44.474Z,97469.80
2018-03-19T00:31:13.519Z,97469.84
2018-03-19T00:33:41.775Z,97467.98
2018-03-19T00:36:10.023Z,97471.53
2018-03-19T00:38:39.056Z,97467.22
2018-03-19T00:41:07.299Z,97461.90
2018-03-19T00:43:35.557Z,97460.90
2018-03-19T00:46:04.569Z,97465.11
2018-03-19T00:48:32.831Z,97461.79
2018-03-19T00:51:01.840Z,97456.69
2018-03-19T00:53:30.099Z,97457.74
2018-03-19T00:55:59.111Z,97455.80
2018-03-19T00:58:27.380Z,97454.92
2018-03-19T01:00:55.626Z,97456.95
2018-03-19T01:03:23.878Z,97453.70
2018-03-19T01:05:52.142Z,97450.77
2018-03-19T01:08:20.395Z,97445.70
2018-03-19T01:10:48.666Z,97444.62
2018-03-19T01:13:16.919Z,97448.89
2018-03-19T01:15:45.939Z,97447.70
2018-03-19T01:18:14.196Z,97445.31
2018-03-19T01:20:43.221Z,97447.05
2018-03-19T01:23:11.482Z,97448.89
2018-03-19T01:25:39.734Z,97445.81
2018-03-19T01:28:08.759Z,97446.52
2018-03-19T01:30:37.022Z,97443.29
2018-03-19T01:33:05.278Z,97448.84
2018-03-19T01:35:34.301Z,97448.73
2018-03-19T01:38:02.551Z,97454.34
2018-03-19T01:40:30.808Z,97442.89
2018-03-19T01:42:59.070Z,97441.78
2018-03-19T01:45:27.327Z,97443.77
2018-03-19T01:47:55.587Z,97437.47
2018-03-19T01:50:23.840Z,97440.66
2018-03-19T01:52:52.111Z,97444.77
2018-03-19T01:55:20.362Z,97438.17
2018-03-19T01:57:49.386Z,97433.28
2018-03-19T02:00:17.647Z,97432.86
2018-03-19T02:02:46.669Z,97431.05
2018-03-19T02:05:14.933Z,97431.48
2018-03-19T02:07:43.195Z,97434.89
2018-03-19T02:10:12.232Z,97430.43
2018-03-19T02:12:40.487Z,97442.91
2018-03-19T02:15:08.746Z,97436.86
2018-03-19T02:17:37.006Z,97446.62
2018-03-19T02:20:06.024Z,97441.84
2018-03-19T02:22:34.285Z,97446.39
2018-03-19T02:25:02.542Z,97441.75
2018-03-19T02:27:31.571Z,97440.63
2018-03-19T02:29:59.824Z,97439.34
2018-03-19T02:32:28.842Z,97437.87
2018-03-19T02:34:57.100Z,97435.68
2018-03-19T02:37:25.351Z,97434.08
2018-03-19T02:39:53.607Z,97433.88
2018-03-19T02:42:21.863Z,97437.65
2018-03-19T02:44:50.121Z,97436.10
2018-03-19T02:47:18.376Z,97439.35
2018-03-19T02:49:47.402Z,97438.11
2018-03-19T02:52:15.651Z,97437.64
2018-03-19T02:54:43.914Z,97431.79
2018-03-19T02:57:12.930Z,97435.80
2018-03-19T02:59:41.200Z,97436.67
2018-03-19T03:02:09.451Z,97435.27
2018-03-19T03:04:38.470Z,97437.80
2018-03-19T03:07:06.731Z,97435.55
2018-03-19T03:09:35.747Z,97436.67
2018-03-19T03:12:04.008Z,97440.49
2018-03-19T03:14:32.259Z,97438.39
2018-03-19T03:17:01.286Z,97441.68
2018-03-19T03:19:29.535Z,97442.72
2018-03-19T03:21:58.557Z,97449.83
2018-03-19T03:24:26.819Z,97446.02
2018-03-19T03:26:55.843Z,97442.28
2018-03-19T03:29:24.094Z,97449.12
2018-03-19T03:31:52.351Z,97444.99
2018-03-19T03:34:21.459Z,97447.66
2018-03-19T03:36:49.708Z,97450.98
2018-03-19T03:39:17.972Z,97454.55
2018-03-19T03:41:46.220Z,97446.84
2018-03-19T03:44:14.470Z,97446.34
2018-03-19T03:46:42.728Z,97450.59
2018-03-19T03:49:11.841Z,97457.45
2018-03-19T03:51:40.102Z,97453.66
2018-03-19T03:54:09.132Z,97450.84
2018-03-19T03:56:37.387Z,97450.23
2018-03-19T03:59:05.643Z,97449.41
2018-03-19T04:01:34.664Z,97452.08
2018-03-19T04:04:02.931Z,97450.45
2018-03-19T04:06:31.186Z,97453.66
2018-03-19T04:09:00.210Z,97451.33
2018-03-19T04:11:28.460Z,97457.25
2018-03-19T04:13:56.718Z,97449.05
2018-03-19T04:16:25.735Z,97452.56
2018-03-19T04:18:53.995Z,97454.50
2018-03-19T04:21:23.011Z,97451.70
2018-03-19T04:23:51.274Z,97453.97
2018-03-19T04:26:20.294Z,97452.68
2018-03-19T04:28:48.558Z,97456.69
2018-03-19T04:31:16.818Z,97453.47
2018-03-19T04:33:45.842Z,97447.36
2018-03-19T04:36:14.094Z,97452.98
2018-03-19T04:38:42.358Z,97449.95
2018-03-19T04:41:11.387Z,97451.24
2018-03-19T04:43:39.646Z,97446.50
2018-03-19T04:46:07.902Z,97452.98
2018-03-19T04:48:36.948Z,97456.80
2018-03-19T04:51:05.214Z,97459.81
2018-03-19T04:53:33.467Z,97464.55
2018-03-19T04:56:01.733Z,97462.45
2018-03-19T04:58:29.979Z,97462.05
2018-03-19T05:00:58.244Z,97459.39
2018-03-19T05:03:26.490Z,97458.77
2018-03-19T05:05:54.746Z,97463.66
2018-03-19T05:08:23.004Z,97461.91
2018-03-19T05:10:52.035Z,97470.00
2018-03-19T05:13:20.291Z,97473.30
2018-03-19T05:15:48.554Z,97471.33
2018-03-19T05:18:16.813Z,97479.91
2018-03-19T05:20:45.835Z,97477.14
2018-03-19T05:23:14.085Z,97476.60
2018-03-19T05:25:43.104Z,97480.40
2018-03-19T05:28:11.362Z,97472.31
2018-03-19T05:30:39.624Z,97474.95
2018-03-19T05:33:08.668Z,97474.39
2018-03-19T05:35:36.905Z,97474.48
2018-03-19T05:38:06.015Z,97472.39
2018-03-19T05:40:34.271Z,97480.83
2018-03-19T05:43:03.287Z,97478.83
2018-03-19T05:45:31.543Z,97478.27
2018-03-19T05:48:00.569Z,97480.59
2018-03-19T05:50:28.931Z,97487.45
2018-03-19T05:52:57.195Z,97478.99
2018-03-19T05:55:25.445Z,97481.55
2018-03-19T05:57:53.707Z,97487.00
2018-03-19T06:00:21.967Z,97489.09
2018-03-19T06:02:50.231Z,97491.74
2018-03-19T06:05:18.492Z,97493.18
2018-03-19T06:07:46.761Z,97497.25
2018-03-19T06:10:15.011Z,97496.99
2018-03-19T06:12:44.023Z,97498.71
2018-03-19T06:15:12.292Z,97501.58
2018-03-19T06:17:41.315Z,97498.70
2018-03-19T06:20:09.570Z,97503.76
2018-03-19T06:22:37.825Z,97507.89
2018-03-19T06:25:06.847Z,97503.39
2018-03-19T06:27:35.101Z,97509.49
2018-03-19T06:30:03.392Z,97512.56
2018-03-19T06:32:31.666Z,97516.78
2018-03-19T06:34:59.934Z,97504.62
2018-03-19T06:37:28.196Z,97512.81
2018-03-19T06:39:57.238Z,97517.76
2018-03-19T06:42:25.493Z,97528.12
2018-03-19T06:44:53.742Z,97528.20
2018-03-19T06:47:22.773Z,97525.59
2018-03-19T06:49:51.060Z,97520.62
2018-03-19T06:52:19.290Z,97525.05
2018-03-19T06:54:48.326Z,97529.93
2018-03-19T06:57:16.586Z,97525.58
2018-03-19T06:59:44.854Z,97529.45
2018-03-19T07:02:13.115Z,97533.41
2018-03-19T07:04:42.135Z,97535.77
2018-03-19T07:07:10.397Z,97529.70
2018-03-19T07:09:38.650Z,97536.27
2018-03-19T07:12:07.675Z,97534.16
2018-03-19T07:14:35.931Z,97538.44
2018-03-19T07:17:04.207Z,97535.91
2018-03-19T07:19:32.463Z,97532.47
2018-03-19T07:22:01.484Z,97533.47
2018-03-19T07:24:29.751Z,97534.31
2018-03-19T07:26:58.011Z,97539.56
2018-03-19T07:29:27.047Z,97539.39
2018-03-19T07:31:55.299Z,97540.63
2018-03-19T07:34:23.572Z,97533.13
2018-03-19T07:36:51.837Z,97540.09
2018-03-19T07:39:20.859Z,97533.17
2018-03-19T07:41:49.124Z,97540.66
2018-03-19T07:44:17.385Z,97548.22
2018-03-19T07:46:46.410Z,97550.30
2018-03-19T07:49:14.677Z,97541.50
2018-03-19T07:51:42.936Z,97543.44
2018-03-19T07:54:11.203Z,97547.60
2018-03-19T07:56:40.224Z,97543.38
2018-03-19T07:59:08.487Z,97543.27
2018-03-19T08:01:36.751Z,97543.94
2018-03-19T08:04:05.018Z,97540.19
2018-03-19T08:06:34.048Z,97543.88
2018-03-19T08:09:02.308Z,97547.88
2018-03-19T08:11:30.562Z,97546.72
2018-03-19T08:13:59.604Z,97543.64
2018-03-19T08:16:27.859Z,97546.55
2018-03-19T08:18:56.140Z,97545.80
2018-03-19T08:21:24.408Z,97542.94
2018-03-19T08:23:52.679Z,97534.19
2018-03-19T08:26:20.947Z,97541.22
2018-03-19T08:28:49.213Z,97539.59
2018-03-19T08:31:18.249Z,97538.05
2018-03-19T08:33:46.511Z,97535.70
2018-03-19T08:36:14.788Z,97537.55
2018-03-19T08:38:43.054Z,97540.57
2018-03-19T08:41:11.322Z,97542.91
2018-03-19T08:43:39.591Z,97549.59
2018-03-19T08:46:07.869Z,97538.67
2018-03-19T08:48:36.134Z,97535.02
2018-03-19T08:51:05.178Z,97541.34
2018-03-19T08:53:33.448Z,97548.59
2018-03-19T08:56:01.722Z,97547.58
2018-03-19T08:58:30.014Z,97541.31
2018-03-19T09:00:58.251Z,97547.13
2018-03-19T09:03:26.519Z,97548.05
2018-03-19T09:05:54.793Z,97553.36
2018-03-19T09:08:23.059Z,97545.47
2018-03-19T09:10:52.106Z,97548.88
2018-03-19T09:13:20.375Z,97544.03
2018-03-19T09:15:48.645Z,97535.16
2018-03-19T09:18:16.922Z,97534.62
2018-03-19T09:20:45.190Z,97534.43
2018-03-19T09:23:13.455Z,97533.52
2018-03-19T09:25:41.724Z,97535.48
2018-03-19T09:28:09.987Z,97539.78
2018-03-19T09:30:39.011Z,97535.34
2018-03-19T09:33:07.274Z,97544.09
2018-03-19T09:35:35.544Z,97542.37
2018-03-19T09:38:03.814Z,97543.22
2018-03-19T09:40:32.069Z,97544.80
2018-03-19T09:43:01.090Z,97543.45
2018-03-19T09:45:29.351Z,97542.54
2018-03-19T09:47:58.384Z,97537.68
2018-03-19T09:50:26.637Z,97545.60
2018-03-19T09:52:54.919Z,97555.70
2018-03-19T09:55:23.182Z,97541.87
2018-03-19T09:57:51.442Z,97545.55
2018-03-19T10:00:20.471Z,97537.55
2018-03-19T10:02:48.730Z,97542.27
2018-03-19T10:05:16.994Z,97543.12
2018-03-19T10:07:46.007Z,97545.59
2018-03-19T10:10:14.289Z,97534.09
2018-03-19T10:12:42.547Z,97535.64
2018-03-19T10:15:10.806Z,97534.09
2018-03-19T10:17:39.842Z,97527.88
2018-03-19T10:20:08.099Z,97530.58
2018-03-19T10:22:36.362Z,97532.08
2018-03-19T10:25:04.637Z,97528.73
2018-03-19T10:27:32.945Z,97529.47
2018-03-19T10:30:01.175Z,97531.41
2018-03-19T10:32:30.203Z,97530.35
2018-03-19T10:34:58.464Z,97533.92
2018-03-19T10:37:26.723Z,97525.19
2018-03-19T10:39:55.756Z,97529.50
2018-03-19T10:42:24.021Z,97524.44
2018-03-19T10:44:52.275Z,97527.87
2018-03-19T10:47:20.541Z,97523.18
2018-03-19T10:49:49.598Z,97524.11
2018-03-19T10:52:17.846Z,97526.55
2018-03-19T10:54:46.094Z,97527.72
2018-03-19T10:57:14.355Z,97526.52
2018-03-19T10:59:43.380Z,97526.70
2018-03-19T11:05:24.131Z,97527.08
2018-03-19T11:07:58.780Z,97526.27
2018-03-19T11:10:27.795Z,97528.52
2018-03-19T11:12:56.047Z,97525.59
2018-03-19T11:15:25.071Z,97528.72
2018-03-19T11:17:53.322Z,97521.45
2018-03-19T11:20:21.573Z,97524.21
2018-03-19T11:22:49.817Z,97519.20
2018-03-19T11:25:18.064Z,97520.84
2018-03-19T11:27:46.315Z,97513.77
2018-03-19T11:30:15.326Z,97517.99
2018-03-19T11:32:43.571Z,97512.27
2018-03-19T11:35:12.595Z,97505.42
2018-03-19T11:37:40.842Z,97505.98
2018-03-19T11:40:09.086Z,97505.50
2018-03-19T11:42:37.336Z,97499.55
2018-03-19T11:45:05.598Z,97501.95
2018-03-19T11:47:33.839Z,97497.64
2018-03-19T11:50:02.108Z,97490.41
2018-03-19T11:52:30.355Z,97495.02
2018-03-19T11:54:58.606Z,97497.96
2018-03-19T11:57:26.862Z,97500.57
2018-03-19T11:59:55.891Z,97498.09
2018-03-19T12:02:24.149Z,97502.43
2018-03-19T12:04:52.410Z,97496.59
2018-03-19T12:07:20.662Z,97504.61
2018-03-19T12:09:49.685Z,97501.79
2018-03-19T12:12:17.949Z,97502.67
2018-03-19T12:14:46.954Z,97500.47
2018-03-19T12:17:15.213Z,97494.03
2018-03-19T12:19:44.227Z,97492.59
2018-03-19T12:22:12.479Z,97485.70
2018-03-19T12:24:41.491Z,97487.69
2018-03-19T12:27:09.748Z,97491.08
2018-03-19T12:29:38.759Z,97481.72
2018-03-19T12:32:07.012Z,97475.20
2018-03-19T12:34:36.023Z,97476.87
2018-03-19T12:37:04.276Z,97471.78
2018-03-19T12:39:32.513Z,97473.41
2018-03-19T12:42:00.771Z,97472.09
2018-03-19T12:44:29.022Z,97479.17
2018-03-19T12:46:57.275Z,97478.58
2018-03-19T12:49:25.594Z,97480.26
2018-03-19T12:51:53.784Z,97481.70
2018-03-19T12:54:22.027Z,97476.33
2018-03-19T12:56:50.278Z,97469.72
2018-03-19T12:59:19.315Z,97474.36
2018-03-19T13:01:47.564Z,97476.88
2018-03-19T13:04:16.578Z,97463.41
2018-03-19T13:06:44.823Z,97462.71
2018-03-19T13:09:13.848Z,97465.46
2018-03-19T13:11:42.106Z,97461.70
2018-03-19T13:14:10.358Z,97456.47
2018-03-19T13:16:38.614Z,97465.45
2018-03-19T13:19:06.870Z,97465.38
2018-03-19T13:21:35.128Z,97464.70
2018-03-19T13:24:03.366Z,97466.70
2018-03-19T13:26:32.392Z,97475.56
2018-03-19T13:29:00.642Z,97471.70
2018-03-19T13:31:29.659Z,97463.42
2018-03-19T13:33:57.906Z,97463.00
2018-03-19T13:36:26.932Z,97459.92
2018-03-19T13:38:55.179Z,97469.05
2018-03-19T13:41:24.199Z,97460.91
2018-03-19T13:43:52.446Z,97462.37
2018-03-19T13:46:21.503Z,97473.50
2018-03-19T13:48:49.779Z,97465.52
2018-03-19T13:51:18.041Z,97468.89
2018-03-19T13:53:46.307Z,97467.22
2018-03-19T13:56:14.547Z,97461.27
2018-03-19T13:58:43.564Z,97462.93
2018-03-19T14:01:11.804Z,97461.24
2018-03-19T14:03:40.823Z,97450.81
2018-03-19T14:06:09.073Z,97453.69
2018-03-19T14:08:38.086Z,97449.02
2018-03-19T14:11:06.330Z,97444.52
2018-03-19T14:13:34.591Z,97447.59
2018-03-19T14:16:02.830Z,97455.80
2018-03-19T14:18:31.085Z,97450.81
2018-03-19T14:20:59.342Z,97442.83
2018-03-19T14:23:28.355Z,97439.81
2018-03-19T14:25:56.609Z,97440.75
2018-03-19T14:28:25.626Z,97434.44
2018-03-19T14:30:53.878Z,97436.91
2018-03-19T14:33:22.898Z,97431.41
2018-03-19T14:35:51.185Z,97428.56
2018-03-19T14:38:19.404Z,97428.76
2018-03-19T14:40:47.660Z,97429.56
2018-03-19T14:43:15.912Z,97439.87
2018-03-19T14:45:44.151Z,97440.69
2018-03-19T14:48:13.178Z,97438.83
2018-03-19T14:50:41.667Z,97438.77
2018-03-19T14:53:09.712Z,97435.92
2018-03-19T14:55:38.727Z,97431.73
2018-03-19T14:58:06.977Z,97437.88
2018-03-19T15:00:35.999Z,97431.77
2018-03-19T15:03:04.243Z,97432.49
2018-03-19T15:05:33.264Z,97430.21
2018-03-19T15:08:01.505Z,97430.58
2018-03-19T15:10:30.526Z,97429.38
2018-03-19T15:12:58.779Z,97428.15
2018-03-19T15:15:27.802Z,97426.05
2018-03-19T15:17:56.056Z,97423.52
2018-03-19T15:20:24.314Z,97427.30
2018-03-19T15:22:53.330Z,97421.26
2018-03-19T15:25:21.583Z,97422.97
2018-03-19T15:27:50.598Z,97431.27
2018-03-19T15:30:18.866Z,97434.06
2018-03-19T15:32:47.118Z,97439.37
2018-03-19T15:35:16.138Z,97437.31
2018-03-19T15:37:44.390Z,97429.05
2018-03-19T15:40:13.407Z,97439.77
2018-03-19T15:42:41.662Z,97442.05
2018-03-19T15:45:10.686Z,97435.91
2018-03-19T15:47:38.939Z,97437.41
2018-03-19T15:50:07.971Z,97437.19
2018-03-19T15:52:36.236Z,97440.59
2018-03-19T15:55:04.477Z,97440.59
2018-03-19T15:57:33.514Z,97444.04
2018-03-19T16:00:01.768Z,97441.01
2018-03-19T16:02:30.025Z,97433.31
2018-03-19T16:04:59.047Z,97440.17
2018-03-19T16:07:27.304Z,97450.10
2018-03-19T16:09:55.555Z,97449.88
2018-03-19T16:12:24.582Z,97452.23
2018-03-19T16:14:52.835Z,97445.46
2018-03-19T16:17:21.867Z,97452.33
2018-03-19T16:19:50.123Z,97461.75
2018-03-19T16:22:18.382Z,97455.39
2018-03-19T16:24:47.405Z,97473.07
2018-03-19T16:27:15.720Z,97467.61
2018-03-19T16:29:43.919Z,97473.35
2018-03-19T16:32:12.955Z,97482.71
2018-03-19T16:34:41.212Z,97479.73
2018-03-19T16:37:09.474Z,97489.50
2018-03-19T16:39:37.742Z,97488.45
2018-03-19T16:42:06.764Z,97490.67
2018-03-19T16:44:35.022Z,97503.09
2018-03-19T16:47:03.275Z,97493.27
2018-03-19T16:49:32.303Z,97504.30
2018-03-19T16:52:00.551Z,97502.36
2018-03-19T16:54:29.577Z,97509.74
2018-03-19T16:56:57.833Z,97507.70
2018-03-19T16:59:26.862Z,97514.94
2018-03-19T17:01:55.118Z,97516.60
2018-03-19T17:04:23.398Z,97519.96
2018-03-19T17:06:51.655Z,97523.77
2018-03-19T17:09:19.923Z,97523.45
2018-03-19T17:11:48.937Z,97527.26
2018-03-19T17:14:17.201Z,97524.35
2018-03-19T17:16:45.459Z,97532.16
2018-03-19T17:19:14.499Z,97539.07
2018-03-19T17:21:42.759Z,97546.55
2018-03-19T17:24:11.018Z,97547.05
2018-03-19T17:26:40.055Z,97554.27
2018-03-19T17:29:08.320Z,97547.97
2018-03-19T17:31:36.591Z,97550.96
2018-03-19T17:34:04.856Z,97557.41
2018-03-19T17:36:33.120Z,97560.95
2018-03-19T17:39:01.411Z,97564.07
2018-03-19T17:41:29.686Z,97576.09
2018-03-19T17:43:57.940Z,97580.20
2018-03-19T17:46:26.977Z,97580.02
2018-03-19T17:48:55.231Z,97578.69
2018-03-19T17:51:23.508Z,97576.34
2018-03-19T17:53:51.772Z,97591.23
2018-03-19T17:56:20.042Z,97590.61
2018-03-19T17:58:48.312Z,97595.67
2018-03-19T18:01:17.339Z,97603.28
2018-03-19T18:03:45.595Z,97605.33
2018-03-19T18:06:13.866Z,97616.66
2018-03-19T18:08:42.124Z,97612.75
2018-03-19T18:11:11.160Z,97622.23
2018-03-19T18:13:39.422Z,97624.92
2018-03-19T18:16:07.688Z,97626.89
2018-03-19T18:18:35.946Z,97634.69
2018-03-19T18:21:04.978Z,97631.43
2018-03-19T18:23:33.240Z,97639.87
2018-03-19T18:26:01.524Z,97639.20
2018-03-19T18:28:29.786Z,97644.51
2018-03-19T18:33:55.026Z,97654.63
2018-03-19T18:36:23.291Z,97652.39
2018-03-19T18:38:51.554Z,97663.30
2018-03-19T18:41:19.820Z,97661.98
2018-03-19T18:43:48.847Z,97658.23
2018-03-19T18:46:17.107Z,97661.53
2018-03-19T18:48:45.379Z,97667.14
2018-03-19T18:51:13.634Z,97668.59
2018-03-19T18:53:42.669Z,97677.02
2018-03-19T18:56:10.930Z,97667.78
2018-03-19T18:58:39.195Z,97669.23
2018-03-19T19:01:07.450Z,97675.45
2018-03-19T19:03:35.711Z,97684.66
2018-03-19T19:06:03.967Z,97689.17
2018-03-19T19:08:32.235Z,97688.28
2018-03-19T19:11:00.495Z,97688.64
2018-03-19T19:13:28.773Z,97691.89
2018-03-19T19:15:57.026Z,97697.05
2018-03-19T19:18:25.292Z,97701.72
2018-03-19T19:20:54.319Z,97700.66
2018-03-19T19:23:22.574Z,97707.11
2018-03-19T19:25:50.834Z,97705.95
2018-03-19T19:28:19.867Z,97709.68
2018-03-19T19:30:48.118Z,97721.63
2018-03-19T19:33:16.382Z,97714.20
2018-03-19T19:35:45.400Z,97723.70
2018-03-19T19:38:13.670Z,97719.84
2018-03-19T19:40:41.927Z,97720.72
2018-03-19T19:43:10.947Z,97720.50
2018-03-19T19:45:39.217Z,97720.55
2018-03-19T19:48:07.474Z,97718.44
2018-03-19T19:50:36.500Z,97722.29
2018-03-19T19:53:04.756Z,97727.61
2018-03-19T19:55:33.018Z,97732.05
2018-03-19T19:58:02.043Z,97733.81
2018-03-19T20:00:30.305Z,97735.56
2018-03-19T20:02:58.558Z,97736.91
2018-03-19T20:05:27.592Z,97744.50
2018-03-19T20:07:55.847Z,97738.03
2018-03-19T20:10:24.117Z,97750.63
2018-03-19T20:12:53.131Z,97747.97
2018-03-19T20:15:21.400Z,97750.95
2018-03-19T20:17:49.646Z,97746.75
2018-03-19T20:20:18.670Z,97744.87
2018-03-19T20:22:46.927Z,97751.45
2018-03-19T20:25:15.946Z,97753.39
2018-03-19T20:27:44.220Z,97751.85
2018-03-19T20:30:12.471Z,97753.70
2018-03-19T20:32:41.503Z,97757.19
2018-03-19T20:35:09.763Z,97752.23
2018-03-19T20:37:38.026Z,97751.10
2018-03-19T20:40:06.300Z,97753.21
2018-03-19T20:42:35.310Z,97754.23
2018-03-19T20:45:03.579Z,97758.78
2018-03-19T20:47:31.841Z,97757.41
2018-03-19T20:50:00.099Z,97759.67
2018-03-19T20:52:28.371Z,97759.44
2018-03-19T20:54:57.400Z,97761.81
2018-03-19T20:57:25.656Z,97760.65
2018-03-19T20:59:54.675Z,97757.64
2018-03-19T21:02:22.941Z,97757.72
2018-03-19T21:04:51.204Z,97761.66
2018-03-19T21:07:19.490Z,97764.42
2018-03-19T21:09:47.749Z,97762.28
2018-03-19T21:12:16.766Z,97767.95
2018-03-19T21:14:45.034Z,97761.48
2018-03-19T21:17:13.287Z,97773.63
2018-03-19T21:19:42.306Z,97767.91
2018-03-19T21:22:10.574Z,97771.89
2018-03-19T21:24:38.830Z,97767.41
2018-03-19T21:27:07.856Z,97765.93
2018-03-19T21:29:36.119Z,97769.14
2018-03-19T21:32:04.379Z,97767.50
2018-03-19T21:34:33.411Z,97765.31
2018-03-19T21:37:01.675Z,97761.95
2018-03-19T21:39:29.944Z,97771.62
2018-03-19T21:41:58.197Z,97768.34
2018-03-19T21:44:27.227Z,97766.23
2018-03-19T21:46:55.482Z,97769.85
2018-03-19T21:49:25.126Z,97763.41
2018-03-19T21:51:53.391Z,97763.13
2018-03-19T21:54:21.660Z,97764.45
2018-03-19T21:56:49.910Z,97760.31
2018-03-19T21:59:18.197Z,97767.14
2018-03-19T22:01:46.456Z,97764.33
2018-03-19T22:04:15.489Z,97761.03
2018-03-19T22:06:43.753Z,97762.08
2018-03-19T22:09:12.019Z,97756.08
2018-03-19T22:11:40.275Z,97761.99
2018-03-19T22:14:09.304Z,97756.72
2018-03-19T22:16:37.584Z,97761.30
2018-03-19T22:19:05.836Z,97753.45
2018-03-19T22:21:34.109Z,97758.70
2018-03-19T22:24:02.360Z,97752.16
2018-03-19T22:26:31.406Z,97756.25
2018-03-19T22:28:59.658Z,97757.83
2018-03-19T22:31:27.930Z,97761.20
2018-03-19T22:33:56.194Z,97761.41
2018-03-19T22:36:25.213Z,97754.38
2018-03-19T22:38:53.470Z,97759.80
2018-03-19T22:41:24.736Z,97760.17
2018-03-19T22:43:53.018Z,97762.81
2018-03-19T22:46:21.286Z,97760.98
2018-03-19T22:48:49.541Z,97759.86
2018-03-19T22:51:18.566Z,97755.61
2018-03-19T22:53:46.823Z,97756.62
2018-03-19T22:56:15.094Z,97760.36
2018-03-19T22:58:43.341Z,97758.98
2018-03-19T23:01:12.375Z,97762.98
2018-03-19T23:03:40.631Z,97761.45
2018-03-19T23:06:08.894Z,97765.42
2018-03-19T23:08:37.954Z,97763.16
2018-03-19T23:11:06.182Z,97761.17
2018-03-19T23:13:35.146Z,97769.57
2018-03-19T23:16:03.434Z,97765.30
2018-03-19T23:18:32.450Z,97764.45
2018-03-19T23:21:00.705Z,97767.11
2018-03-19T23:23:28.967Z,97761.88
2018-03-19T23:25:58.292Z,97761.38
2018-03-19T23:28:26.570Z,97756.77
2018-03-19T23:30:55.115Z,97762.20
2018-03-19T23:33:23.380Z,97761.60
2018-03-19T23:35:51.634Z,97768.66
2018-03-19T23:38:19.922Z,97762.63
2018-03-19T23:40:48.373Z,97768.34
2018-03-19T23:43:16.643Z,97766.38
2018-03-19T23:45:44.895Z,97768.34
2018-03-19T23:48:13.923Z,97773.63
2018-03-19T23:50:42.177Z,97764.52
2018-03-19T23:53:10.452Z,97775.20
2018-03-19T23:55:38.712Z,97772.57
2018-03-19T23:58:07.735Z,97770.84
